Time;durP1;ratioP1;P1;durP2;ratioP2;P2;SDS_P1;SDS_P2;PMS_P1;PMS_P2;Temp;Humidity;BMP_temperature;BMP_pressure;BME280_temperature;BME280_humidity;BME280_pressure;Samples;Min_cycle;Max_cycle;Signal;HPM_P1;HPM_P2
2023/04/18 00:01:08;;;;;;;23.65;21.30;;;10.60;99.90;;;;;;5113242;28;20302;-58
2023/04/18 00:03:36;;;;;;;25.00;22.45;;;10.50;99.90;;;;;;5113191;28;20651;-58
2023/04/18 00:06:02;;;;;;;24.48;21.88;;;10.50;99.90;;;;;;5113050;28;20177;-58
2023/04/18 00:08:28;;;;;;;24.25;21.85;;;10.50;99.90;;;;;;5113230;28;20181;-58
2023/04/18 00:10:53;;;;;;;25.95;22.70;;;10.50;99.90;;;;;;5113203;28;20192;-58
2023/04/18 00:13:19;;;;;;;23.75;21.48;;;10.40;99.90;;;;;;5113082;28;20177;-58
2023/04/18 00:15:45;;;;;;;24.63;22.00;;;10.30;99.90;;;;;;5112918;28;20677;-58
2023/04/18 00:18:14;;;;;;;25.45;22.88;;;10.30;99.90;;;;;;5115241;28;20165;-58
2023/04/18 00:20:40;;;;;;;25.15;22.65;;;10.30;99.90;;;;;;5116659;28;20520;-58
2023/04/18 00:23:06;;;;;;;25.10;22.58;;;10.30;99.90;;;;;;5116826;28;20297;-58
2023/04/18 00:25:32;;;;;;;25.98;23.38;;;10.20;99.90;;;;;;5116519;28;20524;-58
2023/04/18 00:27:57;;;;;;;25.00;22.42;;;10.20;99.90;;;;;;5116666;28;20176;-58
2023/04/18 00:30:23;;;;;;;24.02;21.52;;;10.20;99.90;;;;;;5116621;28;20173;-58
2023/04/18 00:32:49;;;;;;;25.77;23.13;;;10.20;99.90;;;;;;5116451;28;20185;-58
2023/04/18 00:35:14;;;;;;;25.58;22.38;;;10.10;99.90;;;;;;5116343;28;20287;-58
2023/04/18 00:37:40;;;;;;;24.85;22.35;;;10.10;99.90;;;;;;5116298;28;20181;-58
2023/04/18 00:40:07;;;;;;;25.08;22.58;;;10.10;99.90;;;;;;5116450;28;20222;-58
2023/04/18 00:42:32;;;;;;;25.45;22.85;;;10.10;99.90;;;;;;5116416;28;20643;-58
2023/04/18 00:44:58;;;;;;;24.38;21.98;;;10.00;99.90;;;;;;5116195;28;20178;-58
2023/04/18 00:47:24;;;;;;;24.83;22.00;;;10.00;99.90;;;;;;5116197;28;20172;-58
2023/04/18 00:49:50;;;;;;;25.10;22.50;;;10.00;99.90;;;;;;5115862;28;20232;-58
2023/04/18 00:52:17;;;;;;;25.23;22.63;;;10.00;99.90;;;;;;5116381;28;20170;-58
2023/04/18 00:54:43;;;;;;;26.02;23.33;;;9.90;99.90;;;;;;5116034;28;20170;-58
2023/04/18 00:57:10;;;;;;;25.10;22.63;;;9.80;99.90;;;;;;5115967;28;20585;-58
2023/04/18 00:59:36;;;;;;;24.48;22.08;;;9.80;99.90;;;;;;5115978;28;20523;-58
2023/04/18 01:02:02;;;;;;;23.50;21.00;;;9.80;99.90;;;;;;5097876;28;20238;-58
2023/04/18 01:04:28;;;;;;;24.83;22.25;;;9.80;99.90;;;;;;5115793;28;20196;-58
2023/04/18 01:06:55;;;;;;;24.13;21.65;;;9.80;99.90;;;;;;5116122;28;20181;-58
2023/04/18 01:09:22;;;;;;;23.33;20.90;;;9.80;99.90;;;;;;5115963;28;20219;-58
2023/04/18 01:11:48;;;;;;;24.70;22.20;;;9.70;99.90;;;;;;5115773;28;20180;-58
2023/04/18 01:14:14;;;;;;;23.45;21.20;;;9.70;99.90;;;;;;5116141;28;20185;-58
2023/04/18 01:16:40;;;;;;;23.35;21.00;;;9.70;99.90;;;;;;5115594;28;20229;-58
2023/04/18 01:19:06;;;;;;;25.38;22.70;;;9.70;99.90;;;;;;5115569;28;20265;-58
2023/04/18 01:21:42;;;;;;;23.75;21.25;;;9.70;99.90;;;;;;5115761;28;20175;-58
2023/04/18 01:24:11;;;;;;;24.50;21.23;;;9.70;99.90;;;;;;5115768;28;20212;-58
2023/04/18 01:26:37;;;;;;;17.63;15.70;;;9.70;99.90;;;;;;5115594;28;20181;-59
2023/04/18 01:29:03;;;;;;;23.50;21.10;;;9.70;99.90;;;;;;5114627;28;20177;-58
2023/04/18 01:31:28;;;;;;;24.42;21.92;;;9.70;99.90;;;;;;5097049;28;20377;-59
2023/04/18 01:33:54;;;;;;;24.65;21.42;;;9.60;99.90;;;;;;5115516;28;20173;-58
2023/04/18 01:36:20;;;;;;;23.70;21.17;;;9.60;99.90;;;;;;5115292;28;20701;-59
2023/04/18 01:38:46;;;;;;;23.35;20.95;;;9.60;99.90;;;;;;5115186;28;20178;-58
2023/04/18 01:41:11;;;;;;;25.38;22.75;;;9.60;99.90;;;;;;5115267;28;20173;-59
2023/04/18 01:43:37;;;;;;;24.08;21.73;;;9.50;99.90;;;;;;5115147;28;20576;-59
2023/04/18 01:46:03;;;;;;;24.20;21.70;;;9.50;99.90;;;;;;5114906;28;20632;-58
2023/04/18 01:48:28;;;;;;;24.60;21.92;;;9.50;99.90;;;;;;5115150;28;20680;-58
2023/04/18 01:50:54;;;;;;;23.55;21.17;;;9.50;99.90;;;;;;5115132;28;20279;-58
2023/04/18 01:53:19;;;;;;;24.58;22.05;;;9.60;99.90;;;;;;5096851;28;20647;-58
2023/04/18 01:55:48;;;;;;;25.65;22.63;;;9.50;99.90;;;;;;5114775;28;20237;-58
2023/04/18 01:58:15;;;;;;;24.08;21.52;;;9.50;99.90;;;;;;5114867;28;20173;-58
2023/04/18 02:00:40;;;;;;;23.73;21.35;;;9.50;99.90;;;;;;5114644;28;20182;-58
2023/04/18 02:03:06;;;;;;;24.73;21.73;;;9.50;99.90;;;;;;5114932;28;20619;-59
2023/04/18 02:05:31;;;;;;;24.02;21.63;;;9.40;99.90;;;;;;5114845;28;20558;-59
2023/04/18 02:07:58;;;;;;;24.10;21.40;;;9.30;99.90;;;;;;5114618;28;20201;-58
2023/04/18 02:10:23;;;;;;;22.38;20.10;;;9.30;99.90;;;;;;5114601;28;20181;-58
2023/04/18 02:12:49;;;;;;;23.65;21.17;;;9.30;99.90;;;;;;5114513;28;20173;-58
2023/04/18 02:15:15;;;;;;;22.27;19.95;;;9.20;99.90;;;;;;5114347;28;20244;-58
2023/04/18 02:17:40;;;;;;;26.15;21.98;;;9.20;99.90;;;;;;5096364;28;20177;-58
2023/04/18 02:20:07;;;;;;;23.90;21.50;;;9.20;99.90;;;;;;5114589;28;20173;-58
2023/04/18 02:22:32;;;;;;;23.83;21.40;;;9.10;99.90;;;;;;5114449;28;20199;-58
2023/04/18 02:24:58;;;;;;;22.85;20.55;;;9.10;99.90;;;;;;5114550;28;20212;-58
2023/04/18 02:27:24;;;;;;;25.52;22.80;;;9.10;99.90;;;;;;5114318;28;20260;-58
2023/04/18 02:29:49;;;;;;;24.17;21.67;;;9.10;99.90;;;;;;5114120;28;20177;-59
2023/04/18 02:32:15;;;;;;;23.23;20.88;;;9.10;99.90;;;;;;5114382;28;20532;-59
2023/04/18 02:34:41;;;;;;;23.63;21.17;;;9.00;99.90;;;;;;5114529;28;20532;-58
2023/04/18 02:37:06;;;;;;;22.17;19.98;;;9.00;99.90;;;;;;5114398;28;20276;-58
2023/04/18 02:39:32;;;;;;;23.33;21.02;;;9.00;99.90;;;;;;5114108;28;20170;-58
2023/04/18 02:41:58;;;;;;;23.30;20.98;;;8.90;99.90;;;;;;5114090;28;20177;-58
2023/04/18 02:44:24;;;;;;;23.25;20.90;;;9.00;99.90;;;;;;5113839;28;20184;-60
2023/04/18 02:46:49;;;;;;;23.42;21.00;;;9.00;99.90;;;;;;5114123;28;20202;-58
2023/04/18 02:49:15;;;;;;;21.65;19.48;;;9.00;99.90;;;;;;5113742;28;20221;-58
2023/04/18 02:51:41;;;;;;;21.25;19.02;;;8.90;99.90;;;;;;5113864;28;20173;-58
2023/04/18 02:54:06;;;;;;;21.60;19.52;;;8.90;99.90;;;;;;5113913;28;20233;-58
2023/04/18 02:56:32;;;;;;;20.92;18.85;;;8.90;99.90;;;;;;5113792;28;20278;-58
2023/04/18 02:58:58;;;;;;;20.95;18.85;;;9.00;99.90;;;;;;5113687;28;20270;-58
2023/04/18 03:01:23;;;;;;;23.88;19.13;;;9.00;99.90;;;;;;5113982;28;20199;-58
2023/04/18 03:03:49;;;;;;;20.30;17.98;;;9.00;99.90;;;;;;5113808;28;20657;-58
2023/04/18 03:06:15;;;;;;;19.15;17.17;;;8.90;99.90;;;;;;5113649;28;20210;-58
2023/04/18 03:08:40;;;;;;;20.70;18.48;;;8.80;99.90;;;;;;5113768;28;20196;-58
2023/04/18 03:11:06;;;;;;;18.60;16.70;;;8.70;99.90;;;;;;5113608;28;20177;-58
2023/04/18 03:13:33;;;;;;;19.20;17.13;;;8.70;99.90;;;;;;5113440;28;20712;-59
2023/04/18 03:15:59;;;;;;;18.40;16.42;;;8.70;99.90;;;;;;5113713;28;20205;-58
2023/04/18 03:18:25;;;;;;;18.25;16.33;;;8.70;99.90;;;;;;5113695;28;20173;-58
2023/04/18 03:20:51;;;;;;;17.45;15.68;;;8.70;99.90;;;;;;5113602;28;20170;-58
2023/04/18 03:23:16;;;;;;;18.70;16.75;;;8.80;99.90;;;;;;5113886;28;20169;-58
2023/04/18 03:25:42;;;;;;;18.45;16.55;;;8.80;99.90;;;;;;5113504;28;20169;-58
2023/04/18 03:28:08;;;;;;;18.60;16.65;;;8.70;99.90;;;;;;5113374;28;20247;-58
2023/04/18 03:30:33;;;;;;;18.38;16.55;;;8.60;99.90;;;;;;5113628;28;20173;-59
2023/04/18 03:33:01;;;;;;;18.38;16.58;;;8.60;99.90;;;;;;5113586;28;20584;-57
2023/04/18 03:35:27;;;;;;;17.08;15.27;;;8.60;99.90;;;;;;5113619;28;20193;-58
2023/04/18 03:37:53;;;;;;;18.65;16.65;;;8.60;99.90;;;;;;5113425;28;20226;-58
2023/04/18 03:40:18;;;;;;;18.65;16.75;;;8.60;99.90;;;;;;5113332;28;20250;-59
2023/04/18 03:42:44;;;;;;;19.20;17.15;;;8.50;99.90;;;;;;5113266;28;20177;-58
2023/04/18 03:45:10;;;;;;;19.80;17.90;;;8.50;99.90;;;;;;5113516;28;20215;-58
2023/04/18 03:47:36;;;;;;;17.90;16.10;;;8.50;99.90;;;;;;5113232;28;20175;-58
2023/04/18 03:50:02;;;;;;;18.75;16.90;;;8.40;99.90;;;;;;5113398;28;20177;-58
2023/04/18 03:52:28;;;;;;;18.75;16.77;;;8.50;99.90;;;;;;5114518;28;20559;-58
2023/04/18 03:54:53;;;;;;;18.58;16.67;;;8.40;99.90;;;;;;5117181;28;20259;-58
2023/04/18 03:57:19;;;;;;;20.27;15.38;;;8.40;99.90;;;;;;5117176;28;20616;-58
2023/04/18 03:59:44;;;;;;;20.10;17.75;;;8.40;99.90;;;;;;5117380;28;20199;-58
2023/04/18 04:02:10;;;;;;;18.75;16.95;;;8.40;99.90;;;;;;5117265;28;20199;-58
2023/04/18 04:04:36;;;;;;;19.48;16.95;;;8.40;99.90;;;;;;5117192;28;20177;-58
2023/04/18 04:07:02;;;;;;;18.27;15.75;;;8.30;99.90;;;;;;5117106;28;20181;-58
2023/04/18 04:09:27;;;;;;;17.63;15.82;;;8.20;99.90;;;;;;5116996;28;20201;-58
2023/04/18 04:11:53;;;;;;;19.40;15.15;;;8.20;99.90;;;;;;5116857;28;20173;-58
2023/04/18 04:14:18;;;;;;;17.83;15.80;;;8.10;99.90;;;;;;5117053;28;20230;-58
2023/04/18 04:16:44;;;;;;;17.45;15.70;;;8.10;99.90;;;;;;5116964;28;20209;-58
2023/04/18 04:19:10;;;;;;;17.80;16.00;;;8.10;99.90;;;;;;5116892;28;20650;-58
2023/04/18 04:21:35;;;;;;;17.08;14.23;;;8.00;99.90;;;;;;5098695;28;20268;-58
2023/04/18 04:24:01;;;;;;;17.40;15.07;;;8.00;99.90;;;;;;5116533;28;20261;-58
2023/04/18 04:26:29;;;;;;;16.60;14.98;;;8.10;99.90;;;;;;5116273;28;20250;-58
2023/04/18 04:28:56;;;;;;;16.67;14.98;;;8.00;99.90;;;;;;5116436;28;20174;-58
2023/04/18 04:31:21;;;;;;;18.70;14.05;;;8.00;99.90;;;;;;5115559;28;20181;-58
2023/04/18 04:33:47;;;;;;;16.45;14.45;;;8.10;99.90;;;;;;5115836;28;20186;-58
2023/04/18 04:36:17;;;;;;;15.23;13.70;;;8.00;99.90;;;;;;5112687;28;20216;-58
2023/04/18 04:38:43;;;;;;;16.98;15.02;;;8.00;99.90;;;;;;5116497;28;20177;-58
2023/04/18 04:41:10;;;;;;;18.75;16.60;;;7.90;99.90;;;;;;5116179;28;20651;-59
2023/04/18 04:43:36;;;;;;;20.60;18.45;;;7.80;99.90;;;;;;5116488;28;20165;-58
2023/04/18 04:46:03;;;;;;;20.35;18.02;;;7.90;99.90;;;;;;5116344;28;20181;-58
2023/04/18 04:48:28;;;;;;;18.30;16.52;;;7.90;99.90;;;;;;5115950;28;20260;-58
2023/04/18 04:50:56;;;;;;;16.80;15.00;;;7.80;99.90;;;;;;5116310;28;20703;-58
2023/04/18 04:53:24;;;;;;;15.77;14.38;;;7.80;99.90;;;;;;5116156;28;20222;-58
2023/04/18 04:55:50;;;;;;;16.15;13.88;;;7.80;99.90;;;;;;5116113;28;20197;-58
2023/04/18 04:58:16;;;;;;;15.88;12.50;;;7.60;99.90;;;;;;5116324;28;20594;-58
2023/04/18 05:00:42;;;;;;;14.52;13.13;;;7.60;99.90;;;;;;5116229;28;20177;-58
2023/04/18 05:03:09;;;;;;;15.27;13.65;;;7.60;99.90;;;;;;5115403;28;20180;-58
2023/04/18 05:05:35;;;;;;;13.82;12.20;;;7.50;99.90;;;;;;5114183;28;20204;-58
2023/04/18 05:08:01;;;;;;;14.52;13.13;;;7.50;99.90;;;;;;5115915;28;20509;-58
2023/04/18 05:10:27;;;;;;;13.60;12.20;;;7.50;99.90;;;;;;5115714;28;20173;-58
2023/04/18 05:12:53;;;;;;;14.45;12.27;;;7.50;99.90;;;;;;5115959;28;20275;-58
2023/04/18 05:15:19;;;;;;;14.00;12.63;;;7.50;99.90;;;;;;5115820;28;20237;-58
2023/04/18 05:17:45;;;;;;;13.88;12.48;;;7.50;99.90;;;;;;5115850;28;20181;-58
2023/04/18 05:20:10;;;;;;;13.63;12.25;;;7.40;99.90;;;;;;5115713;28;20527;-58
2023/04/18 05:22:36;;;;;;;13.25;11.57;;;7.40;99.90;;;;;;5115617;28;20260;-58
2023/04/18 05:25:02;;;;;;;14.55;12.30;;;7.40;99.90;;;;;;5115445;28;20655;-58
2023/04/18 05:27:28;;;;;;;13.18;11.77;;;7.50;99.90;;;;;;5115698;28;20285;-58
2023/04/18 05:29:53;;;;;;;13.80;12.40;;;7.50;99.90;;;;;;5115564;28;20200;-58
2023/04/18 05:32:20;;;;;;;15.48;11.32;;;7.50;99.90;;;;;;5115534;28;20183;-58
2023/04/18 05:34:46;;;;;;;14.68;11.55;;;7.50;99.90;;;;;;5115792;28;20180;-58
2023/04/18 05:37:11;;;;;;;13.52;11.90;;;7.50;99.90;;;;;;5115189;28;20224;-58
2023/04/18 05:39:37;;;;;;;14.15;10.80;;;7.60;99.90;;;;;;5115177;28;20236;-58
2023/04/18 05:42:03;;;;;;;13.88;10.73;;;7.70;99.90;;;;;;5115177;28;20288;-58
2023/04/18 05:44:29;;;;;;;12.73;11.45;;;7.70;99.90;;;;;;5115364;28;20239;-58
2023/04/18 05:46:54;;;;;;;11.63;10.55;;;7.70;99.90;;;;;;5115213;28;20180;-58
2023/04/18 05:49:20;;;;;;;14.23;9.73;;;7.60;99.90;;;;;;5115022;28;20625;-58
2023/04/18 05:51:48;;;;;;;12.82;10.30;;;7.60;99.90;;;;;;5115076;28;20170;-58
2023/04/18 05:54:15;;;;;;;12.02;10.65;;;7.70;99.90;;;;;;5114868;28;20272;-58
2023/04/18 05:56:40;;;;;;;13.23;10.30;;;7.80;99.90;;;;;;5114977;28;20246;-58
2023/04/18 05:59:06;;;;;;;11.05;9.10;;;7.90;99.90;;;;;;5114966;28;20172;-58
2023/04/18 06:01:32;;;;;;;11.40;10.20;;;8.10;99.90;;;;;;5114997;28;20532;-58
2023/04/18 06:03:58;;;;;;;10.43;9.43;;;8.00;99.90;;;;;;5114874;28;20237;-58
2023/04/18 06:06:23;;;;;;;10.13;9.15;;;8.10;99.90;;;;;;5114684;28;20177;-58
2023/04/18 06:08:49;;;;;;;10.82;9.35;;;8.20;99.90;;;;;;5115051;28;20186;-59
2023/04/18 06:11:15;;;;;;;9.65;8.68;;;8.30;99.90;;;;;;5114822;28;20252;-58
2023/04/18 06:13:40;;;;;;;10.32;9.32;;;8.30;99.90;;;;;;5114605;28;20188;-58
2023/04/18 06:16:07;;;;;;;11.98;9.10;;;8.40;99.90;;;;;;5114188;28;20209;-58
2023/04/18 06:18:32;;;;;;;10.68;9.18;;;8.60;99.90;;;;;;5114529;28;20168;-58
2023/04/18 06:20:58;;;;;;;10.43;9.43;;;8.60;99.90;;;;;;5114478;28;20526;-59
2023/04/18 06:23:24;;;;;;;10.10;9.00;;;8.70;99.90;;;;;;5096055;28;20174;-58
2023/04/18 06:25:50;;;;;;;9.40;8.45;;;8.60;99.90;;;;;;5114530;28;20630;-58
2023/04/18 06:28:16;;;;;;;9.95;8.63;;;8.80;99.90;;;;;;5114297;28;20242;-58
2023/04/18 06:30:41;;;;;;;10.38;8.65;;;8.80;99.90;;;;;;5114416;28;20173;-58
2023/04/18 06:33:10;;;;;;;9.38;8.48;;;8.80;99.90;;;;;;5114204;28;20197;-58
2023/04/18 06:35:36;;;;;;;9.30;8.40;;;8.70;99.90;;;;;;5114102;28;20207;-58
2023/04/18 06:38:02;;;;;;;8.82;8.02;;;8.70;99.90;;;;;;5113975;28;20264;-58
2023/04/18 06:40:27;;;;;;;9.15;8.35;;;8.80;99.90;;;;;;5114554;28;20564;-58
2023/04/18 06:42:53;;;;;;;9.20;8.30;;;9.00;99.90;;;;;;5114669;28;20174;-58
2023/04/18 06:45:19;;;;;;;10.13;8.35;;;9.10;99.90;;;;;;5114025;28;20539;-58
2023/04/18 06:47:46;;;;;;;9.48;7.95;;;9.20;99.90;;;;;;5114018;28;20177;-58
2023/04/18 06:50:13;;;;;;;9.20;8.40;;;9.20;99.90;;;;;;5114008;28;20177;-58
2023/04/18 06:52:44;;;;;;;11.95;8.43;;;9.30;99.90;;;;;;5114409;28;20209;-58
2023/04/18 06:55:11;;;;;;;8.73;7.93;;;9.30;99.90;;;;;;5113920;28;20184;-58
2023/04/18 06:57:41;;;;;;;9.85;8.95;;;9.30;99.90;;;;;;5114042;28;20177;-58
2023/04/18 07:00:08;;;;;;;9.13;8.27;;;9.30;99.90;;;;;;5113749;28;20169;-58
2023/04/18 07:02:38;;;;;;;8.50;7.60;;;9.40;99.90;;;;;;5113882;28;20260;-58
2023/04/18 07:05:05;;;;;;;9.90;8.77;;;9.30;99.90;;;;;;5113737;28;20302;-58
2023/04/18 07:07:31;;;;;;;9.07;8.15;;;9.50;99.90;;;;;;5113937;28;20176;-58
2023/04/18 07:09:57;;;;;;;9.20;8.15;;;9.50;99.90;;;;;;5114018;28;20161;-58
2023/04/18 07:12:23;;;;;;;9.52;7.80;;;9.60;99.90;;;;;;5113748;28;20182;-58
2023/04/18 07:14:49;;;;;;;8.82;7.97;;;9.60;99.90;;;;;;5095596;28;20200;-58
2023/04/18 07:17:15;;;;;;;8.90;8.02;;;9.50;99.90;;;;;;5095322;28;20208;-58
2023/04/18 07:19:41;;;;;;;8.70;7.90;;;9.50;99.90;;;;;;5113446;28;20173;-59
2023/04/18 07:22:06;;;;;;;9.20;8.23;;;9.60;99.90;;;;;;5113754;28;20689;-56
2023/04/18 07:24:32;;;;;;;9.63;8.57;;;9.60;99.90;;;;;;5113987;28;20175;-58
2023/04/18 07:26:58;;;;;;;9.80;8.65;;;9.50;99.90;;;;;;5114222;28;20184;-59
2023/04/18 07:29:24;;;;;;;9.40;8.50;;;9.30;99.90;;;;;;5099705;28;20169;-61
2023/04/18 07:31:50;;;;;;;9.10;8.00;;;9.50;99.90;;;;;;5099755;28;20623;-58
2023/04/18 07:34:16;;;;;;;9.45;8.45;;;9.90;99.90;;;;;;5117679;28;20206;-58
2023/04/18 07:36:42;;;;;;;14.73;9.05;;;10.10;99.90;;;;;;5099050;28;20334;-58
2023/04/18 07:39:08;;;;;;;10.70;8.65;;;10.30;99.90;;;;;;5099121;28;20272;-58
2023/04/18 07:41:34;;;;;;;9.48;8.57;;;10.30;99.90;;;;;;5098833;28;20777;-58
2023/04/18 07:44:01;;;;;;;9.60;8.55;;;10.30;99.90;;;;;;5117221;28;20173;-58
2023/04/18 07:46:27;;;;;;;9.13;8.23;;;10.50;99.90;;;;;;5116957;28;20201;-58
2023/04/18 07:48:53;;;;;;;10.32;8.88;;;10.70;99.90;;;;;;5116889;28;20231;-57
2023/04/18 07:51:19;;;;;;;8.90;7.97;;;10.40;99.90;;;;;;5117037;28;20252;-58
2023/04/18 07:53:45;;;;;;;9.48;8.50;;;10.40;99.90;;;;;;5116903;28;20188;-57
2023/04/18 07:56:11;;;;;;;9.30;8.40;;;10.60;99.90;;;;;;5116706;28;20273;-58
2023/04/18 07:58:37;;;;;;;9.75;8.82;;;10.60;99.90;;;;;;5116761;28;20189;-57
2023/04/18 08:01:03;;;;;;;9.65;8.65;;;10.40;99.90;;;;;;5116635;28;20196;-58
2023/04/18 08:03:29;;;;;;;9.77;8.77;;;10.60;99.90;;;;;;5116600;28;20181;-57
2023/04/18 08:05:54;;;;;;;10.15;9.23;;;10.70;99.90;;;;;;5116704;28;20173;-57
2023/04/18 08:08:20;;;;;;;10.90;9.20;;;10.90;99.90;;;;;;5116758;28;20261;-57
2023/04/18 08:10:46;;;;;;;11.63;10.38;;;11.10;99.90;;;;;;5116648;28;20577;-57
2023/04/18 08:13:12;;;;;;;10.95;9.85;;;10.90;99.90;;;;;;5116467;28;20176;-57
2023/04/18 08:15:41;;;;;;;10.07;9.18;;;11.00;99.90;;;;;;5116270;28;20193;-56
2023/04/18 08:18:07;;;;;;;12.65;9.82;;;11.10;99.90;;;;;;5116169;28;20618;-57
2023/04/18 08:20:35;;;;;;;10.50;9.43;;;11.20;99.90;;;;;;5116568;28;20308;-57
2023/04/18 08:23:00;;;;;;;10.40;9.40;;;11.10;99.90;;;;;;5116132;28;20188;-57
2023/04/18 08:25:26;;;;;;;11.07;9.40;;;11.00;99.90;;;;;;5116329;28;20260;-57
2023/04/18 08:27:52;;;;;;;10.10;9.18;;;10.90;99.90;;;;;;5116322;28;20597;-57
2023/04/18 08:30:17;;;;;;;11.32;10.23;;;10.80;99.90;;;;;;5116033;28;20542;-57
2023/04/18 08:32:43;;;;;;;10.68;9.68;;;10.90;99.90;;;;;;5115917;28;20173;-57
2023/04/18 08:35:09;;;;;;;12.18;10.10;;;11.20;99.90;;;;;;5116211;28;20173;-57
2023/04/18 08:37:34;;;;;;;11.90;9.65;;;11.10;99.90;;;;;;5116047;28;20562;-59
2023/04/18 08:40:02;;;;;;;24.58;22.40;;;11.20;99.90;;;;;;5116138;28;20189;-57
2023/04/18 08:42:28;;;;;;;11.48;10.35;;;11.30;99.90;;;;;;5115890;28;20173;-57
2023/04/18 08:44:54;;;;;;;11.15;10.10;;;11.30;99.90;;;;;;5115806;28;20688;-57
2023/04/18 08:47:20;;;;;;;11.57;10.57;;;11.50;99.90;;;;;;5115609;28;20234;-57
2023/04/18 08:49:46;;;;;;;13.90;12.70;;;11.60;99.90;;;;;;5097587;28;20228;-57
2023/04/18 08:52:13;;;;;;;13.45;10.30;;;11.80;99.90;;;;;;5115882;28;20170;-57
2023/04/18 08:54:43;;;;;;;12.40;11.20;;;11.80;99.90;;;;;;5115815;28;20223;-57
2023/04/18 08:57:15;;;;;;;11.43;10.32;;;11.70;99.90;;;;;;5115487;28;20201;-57
2023/04/18 08:59:44;;;;;;;11.18;9.95;;;11.70;99.90;;;;;;5115374;28;20224;-57
2023/04/18 09:02:14;;;;;;;12.73;11.52;;;12.10;99.90;;;;;;5115562;28;20219;-57
2023/04/18 09:04:47;;;;;;;13.45;12.18;;;12.30;99.90;;;;;;5115635;28;20239;-57
2023/04/18 09:07:17;;;;;;;11.57;10.38;;;12.10;99.90;;;;;;5097448;28;20189;-57
2023/04/18 09:09:52;;;;;;;11.55;10.43;;;12.00;99.90;;;;;;5115310;28;20223;-57
2023/04/18 09:12:23;;;;;;;11.82;10.02;;;12.20;99.90;;;;;;5115218;28;20181;-57
2023/04/18 09:14:50;;;;;;;10.98;9.88;;;12.40;99.90;;;;;;5115356;28;20169;-57
2023/04/18 09:17:31;;;;;;;11.93;10.73;;;12.20;99.90;;;;;;5115189;28;20256;-57
2023/04/18 09:19:58;;;;;;;11.32;10.23;;;11.80;99.90;;;;;;5115144;28;20177;-57
2023/04/18 09:22:25;;;;;;;11.93;10.60;;;11.70;99.90;;;;;;5114977;28;20169;-57
2023/04/18 09:24:54;;;;;;;12.07;10.77;;;11.50;99.90;;;;;;5114910;28;20177;-57
2023/04/18 09:27:21;;;;;;;12.73;11.45;;;11.50;99.90;;;;;;5115112;28;20272;-57
2023/04/18 09:29:53;;;;;;;12.13;10.98;;;11.50;99.90;;;;;;5115019;28;20192;-57
2023/04/18 09:32:28;;;;;;;13.00;11.80;;;11.70;99.90;;;;;;5114781;28;20639;-57
2023/04/18 09:35:02;;;;;;;12.02;10.88;;;11.70;99.90;;;;;;5096679;28;20168;-57
2023/04/18 09:37:28;;;;;;;12.77;11.57;;;11.80;99.90;;;;;;5114976;28;20204;-57
2023/04/18 09:39:54;;;;;;;12.73;11.52;;;12.00;99.90;;;;;;5114916;28;20173;-57
2023/04/18 09:42:21;;;;;;;12.95;11.57;;;12.00;99.90;;;;;;5114779;28;20229;-57
2023/04/18 09:44:58;;;;;;;13.18;11.88;;;12.10;99.90;;;;;;5114728;28;20173;-57
2023/04/18 09:47:25;;;;;;;13.35;12.02;;;12.50;99.90;;;;;;5114489;28;20223;-57
2023/04/18 09:49:51;;;;;;;13.27;12.15;;;12.60;99.90;;;;;;5113659;28;20216;-57
2023/04/18 09:52:19;;;;;;;13.27;11.95;;;13.00;99.90;;;;;;5114752;28;20172;-59
2023/04/18 09:54:46;;;;;;;12.80;11.60;;;12.80;99.90;;;;;;5114553;28;20260;-57
2023/04/18 09:57:13;;;;;;;12.77;11.68;;;12.60;99.90;;;;;;5114448;28;20208;-58
2023/04/18 09:59:46;;;;;;;13.52;12.20;;;12.50;99.90;;;;;;5114421;28;20169;-58
2023/04/18 10:02:19;;;;;;;14.02;12.57;;;13.00;99.90;;;;;;5114195;28;20173;-58
2023/04/18 10:04:46;;;;;;;13.43;12.05;;;13.20;99.90;;;;;;5114578;28;20269;-58
2023/04/18 10:07:13;;;;;;;13.88;12.52;;;13.50;99.90;;;;;;5114306;28;20176;-58
2023/04/18 10:09:43;;;;;;;13.57;12.32;;;13.50;99.90;;;;;;5096308;28;20666;-57
2023/04/18 10:12:11;;;;;;;13.88;12.57;;;13.40;99.90;;;;;;5114111;28;20587;-58
2023/04/18 10:14:41;;;;;;;15.40;12.70;;;13.30;99.90;;;;;;5114056;28;20177;-58
2023/04/18 10:17:12;;;;;;;14.07;12.82;;;13.10;99.90;;;;;;5114197;28;20618;-58
2023/04/18 10:19:43;;;;;;;14.68;13.38;;;13.20;99.90;;;;;;5114337;28;20260;-58
2023/04/18 10:22:11;;;;;;;14.98;13.55;;;13.10;99.90;;;;;;5114020;28;20268;-58
2023/04/18 10:24:54;;;;;;;15.02;13.63;;;13.30;99.90;;;;;;5114299;28;20252;-58
2023/04/18 10:27:48;;;;;;;14.40;13.20;;;13.30;99.90;;;;;;5113716;28;20516;-57
2023/04/18 10:30:15;;;;;;;14.13;12.80;;;13.40;99.90;;;;;;5113810;28;20174;-58
2023/04/18 10:32:40;;;;;;;14.55;13.25;;;13.40;99.90;;;;;;5113643;28;20177;-58
2023/04/18 10:35:06;;;;;;;13.65;12.45;;;13.50;99.90;;;;;;5113708;28;20177;-58
2023/04/18 10:37:32;;;;;;;14.32;13.05;;;13.50;99.90;;;;;;5113657;28;20165;-58
2023/04/18 10:40:04;;;;;;;14.80;13.35;;;13.70;99.90;;;;;;5113513;28;20184;-58
2023/04/18 10:42:45;;;;;;;14.63;13.13;;;14.10;99.90;;;;;;5113807;28;20177;-58
2023/04/18 10:45:18;;;;;;;14.23;12.93;;;14.30;99.90;;;;;;5113602;28;20285;-58
2023/04/18 10:47:44;;;;;;;14.70;13.40;;;13.90;99.90;;;;;;5113275;28;20253;-57
2023/04/18 10:50:10;;;;;;;14.07;12.75;;;13.40;99.90;;;;;;5113453;28;20189;-58
2023/04/18 10:52:36;;;;;;;13.90;12.43;;;13.50;99.90;;;;;;5113655;28;20173;-58
2023/04/18 10:55:17;;;;;;;12.77;11.68;;;13.30;99.90;;;;;;5113401;28;20256;-57
2023/04/18 10:57:47;;;;;;;11.38;10.27;;;13.40;99.90;;;;;;5113406;28;20173;-58
2023/04/18 11:00:16;;;;;;;12.10;10.80;;;13.50;99.90;;;;;;5113274;28;20184;-58
2023/04/18 11:03:02;;;;;;;12.30;10.40;;;13.70;99.90;;;;;;5113126;28;20219;-58
2023/04/18 11:05:28;;;;;;;11.65;10.55;;;14.00;99.90;;;;;;5112726;28;20619;-58
2023/04/18 11:07:54;;;;;;;11.60;10.50;;;13.80;99.90;;;;;;5113242;28;20177;-58
2023/04/18 11:10:23;;;;;;;11.23;10.02;;;13.80;99.90;;;;;;5113262;28;20213;-58
2023/04/18 11:12:49;;;;;;;10.88;9.93;;;13.80;99.90;;;;;;5113064;28;20628;-58
2023/04/18 11:15:20;;;;;;;11.00;9.90;;;13.70;99.90;;;;;;5112966;28;20170;-58
2023/04/18 11:17:59;;;;;;;10.23;9.23;;;13.40;99.90;;;;;;5113248;28;20248;-58
2023/04/18 11:20:25;;;;;;;10.45;9.50;;;13.50;99.90;;;;;;5113214;28;20500;-58
2023/04/18 11:22:58;;;;;;;10.75;9.80;;;13.60;99.90;;;;;;5113040;28;20204;-58
2023/04/18 11:25:30;;;;;;;11.32;10.13;;;13.40;99.90;;;;;;5113005;28;20165;-58
2023/04/18 11:28:00;;;;;;;11.50;10.35;;;13.10;99.90;;;;;;5112884;28;20176;-58
2023/04/18 11:30:26;;;;;;;10.93;9.82;;;12.90;99.90;;;;;;5113106;28;20180;-58
2023/04/18 11:32:52;;;;;;;12.10;10.85;;;13.00;99.90;;;;;;5113075;28;20169;-58
2023/04/18 11:35:18;;;;;;;12.85;11.63;;;12.90;99.90;;;;;;5112896;28;20169;-58
2023/04/18 11:37:44;;;;;;;11.82;10.63;;;13.40;99.90;;;;;;5112572;28;20521;-57
2023/04/18 11:40:11;;;;;;;12.90;10.38;;;13.70;99.90;;;;;;5112601;28;20178;-58
2023/04/18 11:42:39;;;;;;;11.18;10.27;;;14.00;99.90;;;;;;5113434;28;20169;-58
2023/04/18 11:45:23;;;;;;;11.63;10.55;;;14.10;99.90;;;;;;5112992;28;20173;-58
2023/04/18 11:47:55;;;;;;;12.48;11.35;;;14.30;99.90;;;;;;5112960;28;20224;-58
2023/04/18 11:50:21;;;;;;;12.35;11.30;;;14.40;99.90;;;;;;5113082;28;20184;-58
2023/04/18 11:52:50;;;;;;;12.80;11.65;;;14.20;99.90;;;;;;5113047;28;20534;-58
2023/04/18 11:55:24;;;;;;;13.25;12.05;;;14.20;99.90;;;;;;5112550;28;20641;-58
2023/04/18 11:57:54;;;;;;;13.57;12.38;;;14.00;99.90;;;;;;5113177;28;20527;-58
2023/04/18 12:00:35;;;;;;;13.57;12.48;;;13.90;99.90;;;;;;5113217;28;20644;-58
2023/04/18 12:03:03;;;;;;;14.65;13.30;;;13.70;99.90;;;;;;5113276;28;20166;-58
2023/04/18 12:05:34;;;;;;;15.25;13.98;;;13.50;99.90;;;;;;5112475;28;20185;-58
2023/04/18 12:08:12;;;;;;;13.57;12.32;;;13.50;99.90;;;;;;5113341;28;20166;-58
2023/04/18 12:10:51;;;;;;;13.95;12.75;;;13.80;99.90;;;;;;5113253;28;20205;-58
2023/04/18 12:13:17;;;;;;;12.30;11.25;;;14.30;99.90;;;;;;5114143;28;20165;-58
2023/04/18 12:15:45;;;;;;;11.13;9.85;;;14.40;99.80;;;;;;5116732;28;20201;-58
2023/04/18 12:18:13;;;;;;;11.10;10.00;;;14.00;99.90;;;;;;5116953;28;20157;-57
2023/04/18 12:20:48;;;;;;;13.73;10.23;;;13.80;99.90;;;;;;5116652;28;20535;-58
2023/04/18 12:23:50;;;;;;;10.70;9.85;;;13.70;99.90;;;;;;5116734;28;20176;-58
2023/04/18 12:26:17;;;;;;;11.05;9.90;;;13.70;99.90;;;;;;5014088;28;20326;-58
2023/04/18 12:28:48;;;;;;;10.48;9.57;;;13.80;99.90;;;;;;5096591;28;20723;-57
2023/04/18 12:31:14;;;;;;;10.68;9.70;;;13.90;99.90;;;;;;5116779;28;20169;-58
2023/04/18 12:33:39;;;;;;;10.52;9.50;;;13.80;99.90;;;;;;5116712;28;20180;-58
2023/04/18 12:36:07;;;;;;;10.77;9.77;;;13.60;99.90;;;;;;5116605;28;20236;-58